Terminal Aerodrome Forecast
Issued by NWS

Home | Current Version | Previous Version | Text Only | Print | Product List | Glossary Off
Versions: 1 2 3 4 5 6 7 8 9 10 11 12 13 14 15 16 17 18 19 20 21 22 23 24 25 26 27 28 29

695
FTUS43 KABR 262339
TAFATY
TAF
KATY 262339Z 2700/2724 08015KT 5SM BR OVC005
     FM270300 08015KT 3SM BR OVC003
     FM270600 08015KT 3SM BR VCSH OVC003
     FM270800 08016KT 2SM -RA BR OVC003
     FM271500 07021G29KT 3SM RA BR OVC010=

USA.gov is the U.S. government's official web portal to all federal, state and local government web resources and services.